sensor_id;sensor_type;location;lat;lon;timestamp;temperature;humidity
2751;DHT22;1383;48.362;10.908;2023-03-01T00:01:04;1.70;51.60
2751;DHT22;1383;48.362;10.908;2023-03-01T00:03:32;1.60;50.90
2751;DHT22;1383;48.362;10.908;2023-03-01T00:05:59;1.60;50.70
2751;DHT22;1383;48.362;10.908;2023-03-01T00:08:27;1.60;51.20
2751;DHT22;1383;48.362;10.908;2023-03-01T00:11:05;1.60;51.00
2751;DHT22;1383;48.362;10.908;2023-03-01T00:13:33;1.70;51.00
2751;DHT22;1383;48.362;10.908;2023-03-01T00:16:05;1.60;50.80
2751;DHT22;1383;48.362;10.908;2023-03-01T00:18:33;1.60;51.20
2751;DHT22;1383;48.362;10.908;2023-03-01T00:21:00;1.70;50.90
2751;DHT22;1383;48.362;10.908;2023-03-01T00:23:28;1.80;50.80
2751;DHT22;1383;48.362;10.908;2023-03-01T00:25:55;1.80;50.30
2751;DHT22;1383;48.362;10.908;2023-03-01T00:28:22;1.70;50.40
2751;DHT22;1383;48.362;10.908;2023-03-01T00:30:49;1.70;50.40
2751;DHT22;1383;48.362;10.908;2023-03-01T00:33:16;1.80;50.50
2751;DHT22;1383;48.362;10.908;2023-03-01T00:35:43;1.80;51.40
2751;DHT22;1383;48.362;10.908;2023-03-01T00:38:10;1.80;50.70
2751;DHT22;1383;48.362;10.908;2023-03-01T00:40:37;1.80;50.30
2751;DHT22;1383;48.362;10.908;2023-03-01T00:43:04;1.80;50.50
2751;DHT22;1383;48.362;10.908;2023-03-01T00:45:32;1.80;50.20
2751;DHT22;1383;48.362;10.908;2023-03-01T00:47:59;1.80;50.20
2751;DHT22;1383;48.362;10.908;2023-03-01T00:50:26;1.90;50.30
2751;DHT22;1383;48.362;10.908;2023-03-01T00:52:55;1.90;49.90
2751;DHT22;1383;48.362;10.908;2023-03-01T00:55:23;1.90;49.80
2751;DHT22;1383;48.362;10.908;2023-03-01T00:57:50;1.90;49.50
2751;DHT22;1383;48.362;10.908;2023-03-01T01:00:18;1.80;49.70
2751;DHT22;1383;48.362;10.908;2023-03-01T01:02:45;1.80;49.80
2751;DHT22;1383;48.362;10.908;2023-03-01T01:05:13;1.80;49.70
2751;DHT22;1383;48.362;10.908;2023-03-01T01:07:40;1.90;49.90
2751;DHT22;1383;48.362;10.908;2023-03-01T01:10:07;1.90;49.80
2751;DHT22;1383;48.362;10.908;2023-03-01T01:12:34;1.80;49.50
2751;DHT22;1383;48.362;10.908;2023-03-01T01:15:01;1.80;50.00
2751;DHT22;1383;48.362;10.908;2023-03-01T01:17:27;1.80;49.80
2751;DHT22;1383;48.362;10.908;2023-03-01T01:19:54;1.90;49.90
2751;DHT22;1383;48.362;10.908;2023-03-01T01:22:21;1.90;49.90
2751;DHT22;1383;48.362;10.908;2023-03-01T01:24:48;1.80;49.80
2751;DHT22;1383;48.362;10.908;2023-03-01T01:27:15;1.80;50.20
2751;DHT22;1383;48.362;10.908;2023-03-01T01:29:41;1.70;50.30
2751;DHT22;1383;48.362;10.908;2023-03-01T01:32:08;1.60;51.10
2751;DHT22;1383;48.362;10.908;2023-03-01T01:34:35;1.70;51.00
2751;DHT22;1383;48.362;10.908;2023-03-01T01:37:02;1.70;50.90
2751;DHT22;1383;48.362;10.908;2023-03-01T01:39:29;1.50;51.30
2751;DHT22;1383;48.362;10.908;2023-03-01T01:42:06;1.60;51.80
2751;DHT22;1383;48.362;10.908;2023-03-01T01:44:33;1.60;52.00
2751;DHT22;1383;48.362;10.908;2023-03-01T01:47:14;1.50;52.00
2751;DHT22;1383;48.362;10.908;2023-03-01T01:50:00;1.40;52.70
2751;DHT22;1383;48.362;10.908;2023-03-01T01:52:32;1.40;53.00
2751;DHT22;1383;48.362;10.908;2023-03-01T01:57:39;1.40;53.30
2751;DHT22;1383;48.362;10.908;2023-03-01T02:00:12;1.40;53.30
2751;DHT22;1383;48.362;10.908;2023-03-01T02:02:39;1.40;53.30
2751;DHT22;1383;48.362;10.908;2023-03-01T02:08:05;1.30;53.20
2751;DHT22;1383;48.362;10.908;2023-03-01T02:10:33;1.30;53.40
2751;DHT22;1383;48.362;10.908;2023-03-01T02:13:02;1.20;53.30
2751;DHT22;1383;48.362;10.908;2023-03-01T02:15:33;1.10;53.70
2751;DHT22;1383;48.362;10.908;2023-03-01T02:18:01;1.10;54.20
2751;DHT22;1383;48.362;10.908;2023-03-01T02:20:39;1.20;54.30
2751;DHT22;1383;48.362;10.908;2023-03-01T02:23:08;1.10;54.20
2751;DHT22;1383;48.362;10.908;2023-03-01T02:30:40;1.20;54.30
2751;DHT22;1383;48.362;10.908;2023-03-01T02:33:28;1.20;54.10
2751;DHT22;1383;48.362;10.908;2023-03-01T02:36:00;1.10;53.60
2751;DHT22;1383;48.362;10.908;2023-03-01T02:38:28;1.10;54.00
2751;DHT22;1383;48.362;10.908;2023-03-01T02:40:57;1.10;53.80
2751;DHT22;1383;48.362;10.908;2023-03-01T02:43:29;1.10;54.20
2751;DHT22;1383;48.362;10.908;2023-03-01T02:45:59;1.10;54.10
2751;DHT22;1383;48.362;10.908;2023-03-01T02:48:29;1.20;54.20
2751;DHT22;1383;48.362;10.908;2023-03-01T02:51:07;1.20;54.20
2751;DHT22;1383;48.362;10.908;2023-03-01T02:56:35;1.10;53.90
2751;DHT22;1383;48.362;10.908;2023-03-01T02:59:03;1.10;54.20
2751;DHT22;1383;48.362;10.908;2023-03-01T03:01:30;1.00;54.10
2751;DHT22;1383;48.362;10.908;2023-03-01T03:04:08;0.90;54.50
2751;DHT22;1383;48.362;10.908;2023-03-01T03:06:37;0.90;54.90
2751;DHT22;1383;48.362;10.908;2023-03-01T03:09:04;0.90;55.10
2751;DHT22;1383;48.362;10.908;2023-03-01T03:11:31;0.90;54.70
2751;DHT22;1383;48.362;10.908;2023-03-01T03:13:58;0.90;54.90
2751;DHT22;1383;48.362;10.908;2023-03-01T03:16:25;1.00;55.10
2751;DHT22;1383;48.362;10.908;2023-03-01T03:18:52;0.90;54.40
2751;DHT22;1383;48.362;10.908;2023-03-01T03:21:19;0.80;54.60
2751;DHT22;1383;48.362;10.908;2023-03-01T03:23:46;0.80;55.10
2751;DHT22;1383;48.362;10.908;2023-03-01T03:26:12;0.80;55.10
2751;DHT22;1383;48.362;10.908;2023-03-01T03:28:41;0.80;55.30
2751;DHT22;1383;48.362;10.908;2023-03-01T03:31:08;0.80;54.80
2751;DHT22;1383;48.362;10.908;2023-03-01T03:33:35;0.80;55.00
2751;DHT22;1383;48.362;10.908;2023-03-01T03:36:02;0.80;54.90
2751;DHT22;1383;48.362;10.908;2023-03-01T03:38:29;0.80;54.60
2751;DHT22;1383;48.362;10.908;2023-03-01T03:41:04;0.80;54.50
2751;DHT22;1383;48.362;10.908;2023-03-01T03:43:33;0.90;54.20
2751;DHT22;1383;48.362;10.908;2023-03-01T03:46:00;0.90;53.80
2751;DHT22;1383;48.362;10.908;2023-03-01T03:48:27;0.90;54.00
2751;DHT22;1383;48.362;10.908;2023-03-01T03:50:56;1.00;53.70
2751;DHT22;1383;48.362;10.908;2023-03-01T03:53:24;1.00;53.40
2751;DHT22;1383;48.362;10.908;2023-03-01T03:55:52;0.90;53.30
2751;DHT22;1383;48.362;10.908;2023-03-01T03:58:21;0.90;53.40
2751;DHT22;1383;48.362;10.908;2023-03-01T04:00:51;0.90;53.50
2751;DHT22;1383;48.362;10.908;2023-03-01T04:03:19;0.90;53.70
2751;DHT22;1383;48.362;10.908;2023-03-01T04:05:47;0.90;53.80
2751;DHT22;1383;48.362;10.908;2023-03-01T04:08:14;0.90;53.70
2751;DHT22;1383;48.362;10.908;2023-03-01T04:10:44;1.00;53.40
2751;DHT22;1383;48.362;10.908;2023-03-01T04:13:13;1.00;53.30
2751;DHT22;1383;48.362;10.908;2023-03-01T04:15:40;1.00;53.20
2751;DHT22;1383;48.362;10.908;2023-03-01T04:18:12;0.90;53.10
2751;DHT22;1383;48.362;10.908;2023-03-01T04:20:39;0.90;53.20
2751;DHT22;1383;48.362;10.908;2023-03-01T04:23:10;0.90;53.30
2751;DHT22;1383;48.362;10.908;2023-03-01T04:25:39;0.90;53.50
2751;DHT22;1383;48.362;10.908;2023-03-01T04:28:07;0.90;53.30
2751;DHT22;1383;48.362;10.908;2023-03-01T04:30:35;0.90;53.30
2751;DHT22;1383;48.362;10.908;2023-03-01T04:33:06;0.90;53.20
2751;DHT22;1383;48.362;10.908;2023-03-01T04:35:33;0.90;53.40
2751;DHT22;1383;48.362;10.908;2023-03-01T04:38:01;0.90;53.20
2751;DHT22;1383;48.362;10.908;2023-03-01T04:40:29;0.80;53.10
2751;DHT22;1383;48.362;10.908;2023-03-01T04:42:55;0.80;53.30
2751;DHT22;1383;48.362;10.908;2023-03-01T04:45:22;0.80;53.00
2751;DHT22;1383;48.362;10.908;2023-03-01T04:47:49;0.80;53.00
2751;DHT22;1383;48.362;10.908;2023-03-01T04:50:19;0.80;53.00
2751;DHT22;1383;48.362;10.908;2023-03-01T04:52:50;0.80;53.10
2751;DHT22;1383;48.362;10.908;2023-03-01T04:55:17;0.80;52.90
2751;DHT22;1383;48.362;10.908;2023-03-01T04:57:44;0.70;52.90
2751;DHT22;1383;48.362;10.908;2023-03-01T05:00:12;0.60;53.10
2751;DHT22;1383;48.362;10.908;2023-03-01T05:02:54;0.60;53.50
2751;DHT22;1383;48.362;10.908;2023-03-01T05:05:28;0.50;53.70
2751;DHT22;1383;48.362;10.908;2023-03-01T05:07:57;0.50;53.70
2751;DHT22;1383;48.362;10.908;2023-03-01T05:10:25;0.50;53.70
2751;DHT22;1383;48.362;10.908;2023-03-01T05:12:52;0.40;53.70
2751;DHT22;1383;48.362;10.908;2023-03-01T05:15:20;0.40;54.40
2751;DHT22;1383;48.362;10.908;2023-03-01T05:17:49;0.30;54.20
2751;DHT22;1383;48.362;10.908;2023-03-01T05:20:16;0.30;54.70
2751;DHT22;1383;48.362;10.908;2023-03-01T05:22:43;0.20;54.60
2751;DHT22;1383;48.362;10.908;2023-03-01T05:25:10;0.20;54.70
2751;DHT22;1383;48.362;10.908;2023-03-01T05:27:37;0.20;54.80
2751;DHT22;1383;48.362;10.908;2023-03-01T05:30:04;0.10;54.70
2751;DHT22;1383;48.362;10.908;2023-03-01T05:32:41;0.00;55.20
2751;DHT22;1383;48.362;10.908;2023-03-01T05:35:11;0.00;55.50
2751;DHT22;1383;48.362;10.908;2023-03-01T05:37:42;0.00;55.80
2751;DHT22;1383;48.362;10.908;2023-03-01T05:40:11;0.00;55.80
2751;DHT22;1383;48.362;10.908;2023-03-01T05:42:55;-0.10;55.90
2751;DHT22;1383;48.362;10.908;2023-03-01T05:45:24;0.00;55.90
2751;DHT22;1383;48.362;10.908;2023-03-01T05:47:51;-0.10;55.80
2751;DHT22;1383;48.362;10.908;2023-03-01T05:50:21;-0.10;56.20
2751;DHT22;1383;48.362;10.908;2023-03-01T05:53:14;-0.20;56.10
2751;DHT22;1383;48.362;10.908;2023-03-01T05:55:42;-0.20;56.40
2751;DHT22;1383;48.362;10.908;2023-03-01T05:58:15;-0.30;56.70
2751;DHT22;1383;48.362;10.908;2023-03-01T06:00:43;-0.30;56.90
2751;DHT22;1383;48.362;10.908;2023-03-01T06:03:11;-0.30;56.90
2751;DHT22;1383;48.362;10.908;2023-03-01T06:05:39;-0.40;56.90
2751;DHT22;1383;48.362;10.908;2023-03-01T06:08:07;-0.50;57.30
2751;DHT22;1383;48.362;10.908;2023-03-01T06:10:33;-0.50;57.80
2751;DHT22;1383;48.362;10.908;2023-03-01T06:13:00;-0.40;58.00
2751;DHT22;1383;48.362;10.908;2023-03-01T06:15:27;-0.50;58.20
2751;DHT22;1383;48.362;10.908;2023-03-01T06:17:55;-0.50;58.30
2751;DHT22;1383;48.362;10.908;2023-03-01T06:20:27;-0.50;58.40
2751;DHT22;1383;48.362;10.908;2023-03-01T06:22:54;-0.60;58.50
2751;DHT22;1383;48.362;10.908;2023-03-01T06:25:23;-0.60;58.80
2751;DHT22;1383;48.362;10.908;2023-03-01T06:27:51;-0.60;59.70
2751;DHT22;1383;48.362;10.908;2023-03-01T06:30:20;-0.70;59.70
2751;DHT22;1383;48.362;10.908;2023-03-01T06:32:48;-0.60;60.00
2751;DHT22;1383;48.362;10.908;2023-03-01T06:35:16;-0.60;59.80
2751;DHT22;1383;48.362;10.908;2023-03-01T06:37:45;-0.70;59.80
2751;DHT22;1383;48.362;10.908;2023-03-01T06:40:13;-0.60;60.10
2751;DHT22;1383;48.362;10.908;2023-03-01T06:42:42;-0.50;59.70
2751;DHT22;1383;48.362;10.908;2023-03-01T06:45:10;-0.50;59.50
2751;DHT22;1383;48.362;10.908;2023-03-01T06:47:37;-0.50;59.20
2751;DHT22;1383;48.362;10.908;2023-03-01T06:50:04;-0.40;59.30
2751;DHT22;1383;48.362;10.908;2023-03-01T06:52:31;-0.50;59.00
2751;DHT22;1383;48.362;10.908;2023-03-01T06:54:58;-0.50;59.20
2751;DHT22;1383;48.362;10.908;2023-03-01T06:57:25;-0.50;59.20
2751;DHT22;1383;48.362;10.908;2023-03-01T06:59:52;-0.40;59.00
2751;DHT22;1383;48.362;10.908;2023-03-01T07:02:19;-0.40;58.90
2751;DHT22;1383;48.362;10.908;2023-03-01T07:04:46;-0.40;59.00
2751;DHT22;1383;48.362;10.908;2023-03-01T07:07:12;-0.30;59.10
2751;DHT22;1383;48.362;10.908;2023-03-01T07:09:39;-0.20;58.40
2751;DHT22;1383;48.362;10.908;2023-03-01T07:12:06;-0.10;57.50
2751;DHT22;1383;48.362;10.908;2023-03-01T07:14:33;0.00;57.30
2751;DHT22;1383;48.362;10.908;2023-03-01T07:17:00;0.00;56.50
2751;DHT22;1383;48.362;10.908;2023-03-01T07:19:27;0.10;56.10
2751;DHT22;1383;48.362;10.908;2023-03-01T07:21:53;0.10;55.90
2751;DHT22;1383;48.362;10.908;2023-03-01T07:24:22;0.20;55.10
2751;DHT22;1383;48.362;10.908;2023-03-01T07:26:49;0.10;54.80
2751;DHT22;1383;48.362;10.908;2023-03-01T07:29:17;0.20;54.60
2751;DHT22;1383;48.362;10.908;2023-03-01T07:31:44;0.30;54.50
2751;DHT22;1383;48.362;10.908;2023-03-01T07:34:11;0.30;53.70
2751;DHT22;1383;48.362;10.908;2023-03-01T07:36:38;0.40;53.00
2751;DHT22;1383;48.362;10.908;2023-03-01T07:39:06;0.30;53.00
2751;DHT22;1383;48.362;10.908;2023-03-01T07:41:33;0.40;52.90
2751;DHT22;1383;48.362;10.908;2023-03-01T07:43:59;0.40;53.20
2751;DHT22;1383;48.362;10.908;2023-03-01T07:46:26;0.60;52.60
2751;DHT22;1383;48.362;10.908;2023-03-01T07:48:53;0.60;51.60
2751;DHT22;1383;48.362;10.908;2023-03-01T07:51:20;0.60;51.80
2751;DHT22;1383;48.362;10.908;2023-03-01T07:53:48;0.70;51.90
2751;DHT22;1383;48.362;10.908;2023-03-01T07:56:16;0.60;51.30
2751;DHT22;1383;48.362;10.908;2023-03-01T07:58:45;0.60;51.30
2751;DHT22;1383;48.362;10.908;2023-03-01T08:01:16;0.80;51.50
2751;DHT22;1383;48.362;10.908;2023-03-01T08:03:44;0.80;50.90
2751;DHT22;1383;48.362;10.908;2023-03-01T08:06:12;0.80;50.80
2751;DHT22;1383;48.362;10.908;2023-03-01T08:08:39;0.90;50.60
2751;DHT22;1383;48.362;10.908;2023-03-01T08:11:07;1.00;50.40
2751;DHT22;1383;48.362;10.908;2023-03-01T08:13:36;1.00;49.80
2751;DHT22;1383;48.362;10.908;2023-03-01T08:16:09;1.10;49.10
2751;DHT22;1383;48.362;10.908;2023-03-01T08:18:37;1.20;48.60
2751;DHT22;1383;48.362;10.908;2023-03-01T08:21:05;1.30;48.60
2751;DHT22;1383;48.362;10.908;2023-03-01T08:23:33;1.40;47.30
2751;DHT22;1383;48.362;10.908;2023-03-01T08:26:11;1.40;46.10
2751;DHT22;1383;48.362;10.908;2023-03-01T08:28:39;1.40;46.60
2751;DHT22;1383;48.362;10.908;2023-03-01T08:31:23;1.40;46.80
2751;DHT22;1383;48.362;10.908;2023-03-01T08:33:54;1.50;46.30
2751;DHT22;1383;48.362;10.908;2023-03-01T08:36:27;1.50;46.10
2751;DHT22;1383;48.362;10.908;2023-03-01T08:38:55;1.50;46.20
2751;DHT22;1383;48.362;10.908;2023-03-01T08:41:22;1.60;45.70
2751;DHT22;1383;48.362;10.908;2023-03-01T08:43:50;1.70;45.60
2751;DHT22;1383;48.362;10.908;2023-03-01T08:46:17;1.80;45.00
2751;DHT22;1383;48.362;10.908;2023-03-01T08:48:44;1.90;44.30
2751;DHT22;1383;48.362;10.908;2023-03-01T08:51:13;1.80;43.80
2751;DHT22;1383;48.362;10.908;2023-03-01T08:53:40;1.80;43.70
2751;DHT22;1383;48.362;10.908;2023-03-01T08:56:09;1.80;43.70
2751;DHT22;1383;48.362;10.908;2023-03-01T08:58:37;1.80;44.30
2751;DHT22;1383;48.362;10.908;2023-03-01T09:01:11;1.80;43.70
2751;DHT22;1383;48.362;10.908;2023-03-01T09:03:39;1.80;43.70
2751;DHT22;1383;48.362;10.908;2023-03-01T09:06:06;1.90;44.20
2751;DHT22;1383;48.362;10.908;2023-03-01T09:08:35;1.90;43.60
2751;DHT22;1383;48.362;10.908;2023-03-01T09:11:03;1.80;43.30
2751;DHT22;1383;48.362;10.908;2023-03-01T09:13:30;1.70;43.50
2751;DHT22;1383;48.362;10.908;2023-03-01T09:16:02;1.80;43.60
2751;DHT22;1383;48.362;10.908;2023-03-01T09:18:29;1.80;44.00
2751;DHT22;1383;48.362;10.908;2023-03-01T09:21:07;1.80;43.90
2751;DHT22;1383;48.362;10.908;2023-03-01T09:23:39;2.00;43.90
2751;DHT22;1383;48.362;10.908;2023-03-01T09:26:07;2.00;43.70
2751;DHT22;1383;48.362;10.908;2023-03-01T09:28:36;2.10;44.40
2751;DHT22;1383;48.362;10.908;2023-03-01T09:31:03;2.20;44.10
2751;DHT22;1383;48.362;10.908;2023-03-01T09:33:31;2.20;43.90
2751;DHT22;1383;48.362;10.908;2023-03-01T09:36:00;2.10;44.40
2751;DHT22;1383;48.362;10.908;2023-03-01T09:38:27;2.20;44.00
2751;DHT22;1383;48.362;10.908;2023-03-01T09:40:54;2.40;43.40
2751;DHT22;1383;48.362;10.908;2023-03-01T09:46:12;2.00;43.80
2751;DHT22;1383;48.362;10.908;2023-03-01T09:48:54;2.20;44.00
2751;DHT22;1383;48.362;10.908;2023-03-01T09:51:27;2.20;43.60
2751;DHT22;1383;48.362;10.908;2023-03-01T09:53:56;2.20;43.70
2751;DHT22;1383;48.362;10.908;2023-03-01T09:56:46;2.30;43.50
2751;DHT22;1383;48.362;10.908;2023-03-01T09:59:26;2.10;43.60
2751;DHT22;1383;48.362;10.908;2023-03-01T10:09:44;2.50;42.70
2751;DHT22;1383;48.362;10.908;2023-03-01T10:12:15;2.70;41.90
2751;DHT22;1383;48.362;10.908;2023-03-01T10:17:39;3.40;41.00
2751;DHT22;1383;48.362;10.908;2023-03-01T10:20:50;3.50;39.60
2751;DHT22;1383;48.362;10.908;2023-03-01T10:23:18;3.80;38.90
2751;DHT22;1383;48.362;10.908;2023-03-01T10:28:35;3.80;39.20
2751;DHT22;1383;48.362;10.908;2023-03-01T10:31:12;3.70;38.40
2751;DHT22;1383;48.362;10.908;2023-03-01T10:33:41;3.90;38.30
2751;DHT22;1383;48.362;10.908;2023-03-01T10:36:08;4.10;38.20
2751;DHT22;1383;48.362;10.908;2023-03-01T10:38:53;4.40;37.80
2751;DHT22;1383;48.362;10.908;2023-03-01T10:41:22;4.80;37.10
2751;DHT22;1383;48.362;10.908;2023-03-01T10:43:58;4.90;35.30
2751;DHT22;1383;48.362;10.908;2023-03-01T10:46:35;4.70;36.40
2751;DHT22;1383;48.362;10.908;2023-03-01T10:49:21;4.70;35.60
2751;DHT22;1383;48.362;10.908;2023-03-01T10:51:50;4.40;35.70
2751;DHT22;1383;48.362;10.908;2023-03-01T10:54:30;4.60;36.30
2751;DHT22;1383;48.362;10.908;2023-03-01T10:57:03;4.70;36.00
2751;DHT22;1383;48.362;10.908;2023-03-01T10:59:32;4.60;36.60
2751;DHT22;1383;48.362;10.908;2023-03-01T11:07:56;4.30;36.70
2751;DHT22;1383;48.362;10.908;2023-03-01T11:13:16;4.40;36.50
2751;DHT22;1383;48.362;10.908;2023-03-01T11:15:58;4.30;36.60
2751;DHT22;1383;48.362;10.908;2023-03-01T11:18:26;4.00;37.30
2751;DHT22;1383;48.362;10.908;2023-03-01T11:21:13;4.00;37.80
2751;DHT22;1383;48.362;10.908;2023-03-01T11:23:40;4.20;38.10
2751;DHT22;1383;48.362;10.908;2023-03-01T11:26:09;4.30;38.30
2751;DHT22;1383;48.362;10.908;2023-03-01T11:28:40;4.40;37.90
2751;DHT22;1383;48.362;10.908;2023-03-01T11:31:09;4.60;37.60
2751;DHT22;1383;48.362;10.908;2023-03-01T11:34:03;4.50;36.90
2751;DHT22;1383;48.362;10.908;2023-03-01T11:36:35;4.60;37.60
2751;DHT22;1383;48.362;10.908;2023-03-01T11:42:00;4.60;37.60
2751;DHT22;1383;48.362;10.908;2023-03-01T11:44:50;4.60;37.50
2751;DHT22;1383;48.362;10.908;2023-03-01T11:50:02;4.80;37.80
2751;DHT22;1383;48.362;10.908;2023-03-01T11:53:14;4.70;36.80
2751;DHT22;1383;48.362;10.908;2023-03-01T11:58:26;4.70;38.20
2751;DHT22;1383;48.362;10.908;2023-03-01T12:01:14;4.80;37.20
2751;DHT22;1383;48.362;10.908;2023-03-01T12:06:59;4.80;37.50
2751;DHT22;1383;48.362;10.908;2023-03-01T12:09:43;4.80;38.00
2751;DHT22;1383;48.362;10.908;2023-03-01T12:12:32;4.80;38.10
2751;DHT22;1383;48.362;10.908;2023-03-01T12:23:45;5.00;37.40
2751;DHT22;1383;48.362;10.908;2023-03-01T12:39:51;5.10;36.80
2751;DHT22;1383;48.362;10.908;2023-03-01T12:42:25;5.10;37.10
2751;DHT22;1383;48.362;10.908;2023-03-01T12:50:51;5.50;36.60
2751;DHT22;1383;48.362;10.908;2023-03-01T12:53:41;5.50;36.50
2751;DHT22;1383;48.362;10.908;2023-03-01T12:56:13;5.60;36.00
2751;DHT22;1383;48.362;10.908;2023-03-01T13:04:41;5.80;36.10
2751;DHT22;1383;48.362;10.908;2023-03-01T13:07:48;5.80;36.00
2751;DHT22;1383;48.362;10.908;2023-03-01T13:28:36;5.80;36.30
2751;DHT22;1383;48.362;10.908;2023-03-01T13:31:06;5.90;36.60
2751;DHT22;1383;48.362;10.908;2023-03-01T13:33:50;6.10;35.60
2751;DHT22;1383;48.362;10.908;2023-03-01T13:41:54;6.20;35.50
2751;DHT22;1383;48.362;10.908;2023-03-01T13:44:33;6.10;35.60
2751;DHT22;1383;48.362;10.908;2023-03-01T13:52:40;6.20;35.70
2751;DHT22;1383;48.362;10.908;2023-03-01T13:57:49;6.30;36.20
2751;DHT22;1383;48.362;10.908;2023-03-01T14:03:18;6.40;36.10
2751;DHT22;1383;48.362;10.908;2023-03-01T14:06:08;6.40;35.20
2751;DHT22;1383;48.362;10.908;2023-03-01T14:08:44;6.30;35.70
2751;DHT22;1383;48.362;10.908;2023-03-01T14:14:30;6.30;36.00
2751;DHT22;1383;48.362;10.908;2023-03-01T14:19:29;6.40;36.10
2751;DHT22;1383;48.362;10.908;2023-03-01T14:24:36;6.40;35.60
2751;DHT22;1383;48.362;10.908;2023-03-01T14:27:04;6.40;35.80
2751;DHT22;1383;48.362;10.908;2023-03-01T14:29:37;6.50;35.80
2751;DHT22;1383;48.362;10.908;2023-03-01T14:32:31;6.40;36.00
2751;DHT22;1383;48.362;10.908;2023-03-01T14:35:00;6.40;36.10
2751;DHT22;1383;48.362;10.908;2023-03-01T14:37:33;6.50;36.50
2751;DHT22;1383;48.362;10.908;2023-03-01T14:40:03;6.50;36.40
2751;DHT22;1383;48.362;10.908;2023-03-01T14:42:36;6.50;36.20
2751;DHT22;1383;48.362;10.908;2023-03-01T14:45:04;6.40;36.50
2751;DHT22;1383;48.362;10.908;2023-03-01T14:47:35;6.50;36.30
2751;DHT22;1383;48.362;10.908;2023-03-01T14:50:21;6.40;36.30
2751;DHT22;1383;48.362;10.908;2023-03-01T14:52:52;6.40;36.20
2751;DHT22;1383;48.362;10.908;2023-03-01T14:55:34;6.40;36.30
2751;DHT22;1383;48.362;10.908;2023-03-01T14:58:04;6.50;36.30
2751;DHT22;1383;48.362;10.908;2023-03-01T15:00:33;6.60;36.30
2751;DHT22;1383;48.362;10.908;2023-03-01T15:03:06;6.50;36.40
2751;DHT22;1383;48.362;10.908;2023-03-01T15:05:36;6.50;36.60
2751;DHT22;1383;48.362;10.908;2023-03-01T15:08:04;6.50;36.60
2751;DHT22;1383;48.362;10.908;2023-03-01T15:10:34;6.50;36.60
2751;DHT22;1383;48.362;10.908;2023-03-01T15:13:13;6.50;36.20
2751;DHT22;1383;48.362;10.908;2023-03-01T15:15:47;6.40;36.20
2751;DHT22;1383;48.362;10.908;2023-03-01T15:18:20;6.40;36.40
2751;DHT22;1383;48.362;10.908;2023-03-01T15:20:48;6.40;36.50
2751;DHT22;1383;48.362;10.908;2023-03-01T15:23:26;6.40;36.70
2751;DHT22;1383;48.362;10.908;2023-03-01T15:25:54;6.40;37.10
2751;DHT22;1383;48.362;10.908;2023-03-01T15:30:58;6.50;36.80
2751;DHT22;1383;48.362;10.908;2023-03-01T15:33:35;6.50;37.00
2751;DHT22;1383;48.362;10.908;2023-03-01T15:36:49;6.50;36.60
2751;DHT22;1383;48.362;10.908;2023-03-01T15:38:56;6.50;36.60
2751;DHT22;1383;48.362;10.908;2023-03-01T15:41:47;6.60;36.80
2751;DHT22;1383;48.362;10.908;2023-03-01T15:44:27;6.50;36.70
2751;DHT22;1383;48.362;10.908;2023-03-01T15:47:29;6.50;37.10
2751;DHT22;1383;48.362;10.908;2023-03-01T15:49:58;6.50;37.10
2751;DHT22;1383;48.362;10.908;2023-03-01T15:52:40;6.50;37.20
2751;DHT22;1383;48.362;10.908;2023-03-01T15:55:25;6.50;37.40
2751;DHT22;1383;48.362;10.908;2023-03-01T15:58:04;6.50;37.50
2751;DHT22;1383;48.362;10.908;2023-03-01T16:00:33;6.50;37.40
2751;DHT22;1383;48.362;10.908;2023-03-01T16:03:00;6.50;37.70
2751;DHT22;1383;48.362;10.908;2023-03-01T16:05:32;6.50;38.00
2751;DHT22;1383;48.362;10.908;2023-03-01T16:07:59;6.50;37.90
2751;DHT22;1383;48.362;10.908;2023-03-01T16:10:27;6.50;38.20
2751;DHT22;1383;48.362;10.908;2023-03-01T16:12:55;6.50;38.20
2751;DHT22;1383;48.362;10.908;2023-03-01T16:15:32;6.50;38.10
2751;DHT22;1383;48.362;10.908;2023-03-01T16:18:01;6.50;38.10
2751;DHT22;1383;48.362;10.908;2023-03-01T16:20:28;6.50;38.10
2751;DHT22;1383;48.362;10.908;2023-03-01T16:23:00;6.50;38.10
2751;DHT22;1383;48.362;10.908;2023-03-01T16:25:28;6.50;38.10
2751;DHT22;1383;48.362;10.908;2023-03-01T16:27:55;6.50;38.50
2751;DHT22;1383;48.362;10.908;2023-03-01T16:30:24;6.40;38.40
2751;DHT22;1383;48.362;10.908;2023-03-01T16:32:52;6.40;38.60
2751;DHT22;1383;48.362;10.908;2023-03-01T16:35:21;6.40;38.70
2751;DHT22;1383;48.362;10.908;2023-03-01T16:37:48;6.40;38.70
2751;DHT22;1383;48.362;10.908;2023-03-01T16:40:24;6.40;39.10
2751;DHT22;1383;48.362;10.908;2023-03-01T16:42:53;6.30;39.10
2751;DHT22;1383;48.362;10.908;2023-03-01T16:45:20;6.30;39.50
2751;DHT22;1383;48.362;10.908;2023-03-01T16:47:52;6.20;39.60
2751;DHT22;1383;48.362;10.908;2023-03-01T16:50:22;6.20;39.70
2751;DHT22;1383;48.362;10.908;2023-03-01T16:52:49;6.20;39.90
2751;DHT22;1383;48.362;10.908;2023-03-01T16:55:16;6.10;40.80
2751;DHT22;1383;48.362;10.908;2023-03-01T16:57:43;6.10;40.40
2751;DHT22;1383;48.362;10.908;2023-03-01T17:00:11;6.10;40.50
2751;DHT22;1383;48.362;10.908;2023-03-01T17:02:40;6.10;40.40
2751;DHT22;1383;48.362;10.908;2023-03-01T17:05:08;6.10;40.40
2751;DHT22;1383;48.362;10.908;2023-03-01T17:07:37;6.10;40.30
2751;DHT22;1383;48.362;10.908;2023-03-01T17:10:05;6.10;40.20
2751;DHT22;1383;48.362;10.908;2023-03-01T17:12:34;6.10;40.20
2751;DHT22;1383;48.362;10.908;2023-03-01T17:15:02;6.10;40.30
2751;DHT22;1383;48.362;10.908;2023-03-01T17:17:29;6.10;40.40
2751;DHT22;1383;48.362;10.908;2023-03-01T17:19:56;6.10;41.30
2751;DHT22;1383;48.362;10.908;2023-03-01T17:22:23;6.10;40.50
2751;DHT22;1383;48.362;10.908;2023-03-01T17:24:50;6.10;40.50
2751;DHT22;1383;48.362;10.908;2023-03-01T17:27:17;6.00;40.60
2751;DHT22;1383;48.362;10.908;2023-03-01T17:29:44;6.10;40.70
2751;DHT22;1383;48.362;10.908;2023-03-01T17:32:11;6.00;40.70
2751;DHT22;1383;48.362;10.908;2023-03-01T17:34:39;6.00;40.80
2751;DHT22;1383;48.362;10.908;2023-03-01T17:37:05;5.90;41.10
2751;DHT22;1383;48.362;10.908;2023-03-01T17:39:32;5.90;41.10
2751;DHT22;1383;48.362;10.908;2023-03-01T17:42:03;5.80;41.20
2751;DHT22;1383;48.362;10.908;2023-03-01T17:44:32;5.70;41.00
2751;DHT22;1383;48.362;10.908;2023-03-01T17:47:01;5.70;41.30
2751;DHT22;1383;48.362;10.908;2023-03-01T17:49:28;5.60;41.40
2751;DHT22;1383;48.362;10.908;2023-03-01T17:51:56;5.60;41.20
2751;DHT22;1383;48.362;10.908;2023-03-01T17:54:24;5.60;41.20
2751;DHT22;1383;48.362;10.908;2023-03-01T17:56:51;5.60;41.10
2751;DHT22;1383;48.362;10.908;2023-03-01T17:59:18;5.60;41.10
2751;DHT22;1383;48.362;10.908;2023-03-01T18:01:45;5.60;41.40
2751;DHT22;1383;48.362;10.908;2023-03-01T18:04:12;5.50;41.30
2751;DHT22;1383;48.362;10.908;2023-03-01T18:06:39;5.50;41.50
2751;DHT22;1383;48.362;10.908;2023-03-01T18:09:06;5.40;41.70
2751;DHT22;1383;48.362;10.908;2023-03-01T18:11:34;5.40;41.80
2751;DHT22;1383;48.362;10.908;2023-03-01T18:14:02;5.40;42.00
2751;DHT22;1383;48.362;10.908;2023-03-01T18:16:29;5.30;41.90
2751;DHT22;1383;48.362;10.908;2023-03-01T18:18:58;5.40;42.20
2751;DHT22;1383;48.362;10.908;2023-03-01T18:21:26;5.20;42.40
2751;DHT22;1383;48.362;10.908;2023-03-01T18:23:53;5.20;42.70
2751;DHT22;1383;48.362;10.908;2023-03-01T18:26:21;5.10;42.80
2751;DHT22;1383;48.362;10.908;2023-03-01T18:28:51;5.00;43.10
2751;DHT22;1383;48.362;10.908;2023-03-01T18:31:19;4.90;43.40